sensor_id;sensor_type;location;lat;lon;timestamp;pressure;altitude;pressure_sealevel;temperature;humidity
76605;BME280;65496;50.978;16.998;2023-02-08T00:00:07;102727.66;;;21.35;25.52
76605;BME280;65496;50.978;16.998;2023-02-08T00:02:53;102728.47;;;21.36;25.52
76605;BME280;65496;50.978;16.998;2023-02-08T00:05:19;102724.66;;;21.32;25.34
76605;BME280;65496;50.978;16.998;2023-02-08T00:07:45;102729.63;;;21.35;25.59
76605;BME280;65496;50.978;16.998;2023-02-08T00:10:11;102732.38;;;21.35;25.89
76605;BME280;65496;50.978;16.998;2023-02-08T00:12:38;102735.13;;;21.35;25.43
76605;BME280;65496;50.978;16.998;2023-02-08T00:15:04;102733.16;;;21.35;25.47
76605;BME280;65496;50.978;16.998;2023-02-08T00:17:31;102737.34;;;21.33;25.48
76605;BME280;65496;50.978;16.998;2023-02-08T00:19:57;102728.84;;;21.29;25.47
76605;BME280;65496;50.978;16.998;2023-02-08T00:22:23;102731.81;;;21.33;25.48
76605;BME280;65496;50.978;16.998;2023-02-08T00:24:49;102744.78;;;21.32;25.41
76605;BME280;65496;50.978;16.998;2023-02-08T00:27:16;102739.88;;;21.29;25.46
76605;BME280;65496;50.978;16.998;2023-02-08T00:29:42;102741.19;;;21.32;25.55
76605;BME280;65496;50.978;16.998;2023-02-08T00:32:09;102746.72;;;21.32;25.56
76605;BME280;65496;50.978;16.998;2023-02-08T00:34:36;102751.44;;;21.31;25.87
76605;BME280;65496;50.978;16.998;2023-02-08T00:37:04;102751.72;;;21.30;25.56
76605;BME280;65496;50.978;16.998;2023-02-08T00:39:30;102756.13;;;21.31;25.45
76605;BME280;65496;50.978;16.998;2023-02-08T00:41:57;102750.38;;;21.27;25.49
76605;BME280;65496;50.978;16.998;2023-02-08T00:44:23;102752.53;;;21.30;25.72
76605;BME280;65496;50.978;16.998;2023-02-08T00:46:49;102750.66;;;21.26;25.67
76605;BME280;65496;50.978;16.998;2023-02-08T00:49:15;102753.91;;;21.28;25.56
76605;BME280;65496;50.978;16.998;2023-02-08T00:51:41;102752.00;;;21.28;25.41
76605;BME280;65496;50.978;16.998;2023-02-08T00:54:12;102755.88;;;21.27;25.42
76605;BME280;65496;50.978;16.998;2023-02-08T00:56:39;102757.50;;;21.28;25.44
76605;BME280;65496;50.978;16.998;2023-02-08T00:59:05;102760.25;;;21.28;25.54
76605;BME280;65496;50.978;16.998;2023-02-08T01:01:32;102753.13;;;21.27;25.39
76605;BME280;65496;50.978;16.998;2023-02-08T01:03:57;102764.16;;;21.27;25.50
76605;BME280;65496;50.978;16.998;2023-02-08T01:06:24;102753.91;;;21.28;25.63
76605;BME280;65496;50.978;16.998;2023-02-08T01:08:49;102750.38;;;21.27;25.63
76605;BME280;65496;50.978;16.998;2023-02-08T01:11:19;102747.63;;;21.27;25.63
76605;BME280;65496;50.978;16.998;2023-02-08T01:13:46;102748.72;;;21.26;25.57
76605;BME280;65496;50.978;16.998;2023-02-08T01:16:15;102741.28;;;21.27;25.51
76605;BME280;65496;50.978;16.998;2023-02-08T01:18:43;102745.16;;;21.26;25.49
76605;BME280;65496;50.978;16.998;2023-02-08T01:21:12;102740.47;;;21.26;25.59
76605;BME280;65496;50.978;16.998;2023-02-08T01:23:39;102735.78;;;21.27;25.53
76605;BME280;65496;50.978;16.998;2023-02-08T01:26:07;102729.44;;;21.26;25.38
76605;BME280;65496;50.978;16.998;2023-02-08T01:28:33;102729.44;;;21.26;25.50
76605;BME280;65496;50.978;16.998;2023-02-08T01:31:05;102728.59;;;21.26;25.48
76605;BME280;65496;50.978;16.998;2023-02-08T01:33:32;102724.19;;;21.25;25.53
76605;BME280;65496;50.978;16.998;2023-02-08T01:35:58;102723.09;;;21.26;25.44
76605;BME280;65496;50.978;16.998;2023-02-08T01:38:23;102718.41;;;21.26;25.59
76605;BME280;65496;50.978;16.998;2023-02-08T01:40:50;102711.25;;;21.25;25.31
76605;BME280;65496;50.978;16.998;2023-02-08T01:43:30;102705.78;;;21.20;25.50
76605;BME280;65496;50.978;16.998;2023-02-08T01:45:57;102712.06;;;21.26;25.48
76605;BME280;65496;50.978;16.998;2023-02-08T01:48:35;102717.88;;;21.24;25.31
76605;BME280;65496;50.978;16.998;2023-02-08T01:51:15;102716.75;;;21.25;25.44
76605;BME280;65496;50.978;16.998;2023-02-08T01:53:43;102717.59;;;21.26;25.35
76605;BME280;65496;50.978;16.998;2023-02-08T01:56:16;102724.19;;;21.25;25.43
76605;BME280;65496;50.978;16.998;2023-02-08T01:58:45;102718.69;;;21.25;25.43
76605;BME280;65496;50.978;16.998;2023-02-08T02:01:13;102718.69;;;21.25;25.30
76605;BME280;65496;50.978;16.998;2023-02-08T02:03:39;102723.38;;;21.24;25.27
76605;BME280;65496;50.978;16.998;2023-02-08T02:06:10;102725.31;;;21.24;25.22
76605;BME280;65496;50.978;16.998;2023-02-08T02:08:40;102713.19;;;21.25;25.32
76605;BME280;65496;50.978;16.998;2023-02-08T02:11:07;102723.69;;;21.23;25.31
76605;BME280;65496;50.978;16.998;2023-02-08T02:13:35;102723.69;;;21.23;25.54
76605;BME280;65496;50.978;16.998;2023-02-08T02:16:02;102715.72;;;21.21;25.52
76605;BME280;65496;50.978;16.998;2023-02-08T02:18:29;102718.19;;;21.23;25.52
76605;BME280;65496;50.978;16.998;2023-02-08T02:21:04;102711.03;;;21.22;25.53
76605;BME280;65496;50.978;16.998;2023-02-08T02:26:57;102705.50;;;21.22;25.44
76605;BME280;65496;50.978;16.998;2023-02-08T02:38:06;102710.50;;;21.20;25.29
76605;BME280;65496;50.978;16.998;2023-02-08T02:41:13;102705.28;;;21.18;25.21
76605;BME280;65496;50.978;16.998;2023-02-08T02:44:04;102706.09;;;21.19;25.42
76605;BME280;65496;50.978;16.998;2023-02-08T02:46:39;102705.28;;;21.18;25.36
76605;BME280;65496;50.978;16.998;2023-02-08T02:49:31;102719.06;;;21.18;25.52
76605;BME280;65496;50.978;16.998;2023-02-08T02:54:51;102721.81;;;21.18;25.40
76605;BME280;65496;50.978;16.998;2023-02-08T02:57:28;102722.91;;;21.17;25.48
76605;BME280;65496;50.978;16.998;2023-02-08T02:59:57;102716.31;;;21.18;25.73
76605;BME280;65496;50.978;16.998;2023-02-08T03:02:27;102714.66;;;21.17;25.57
76605;BME280;65496;50.978;16.998;2023-02-08T03:04:55;102717.41;;;21.17;25.50
76605;BME280;65496;50.978;16.998;2023-02-08T03:15:39;102712.72;;;21.18;25.38
76605;BME280;65496;50.978;16.998;2023-02-08T03:18:34;102711.91;;;21.17;25.61
76605;BME280;65496;50.978;16.998;2023-02-08T03:31:23;102723.47;;;21.19;25.48
76605;BME280;65496;50.978;16.998;2023-02-08T03:33:51;102719.66;;;21.15;25.46
76605;BME280;65496;50.978;16.998;2023-02-08T03:36:29;102735.31;;;21.20;25.45
76605;BME280;65496;50.978;16.998;2023-02-08T03:39:00;102732.56;;;21.20;25.62
76605;BME280;65496;50.978;16.998;2023-02-08T03:41:32;102733.34;;;21.20;25.46
76605;BME280;65496;50.978;16.998;2023-02-08T03:44:06;102733.34;;;21.20;25.41
76605;BME280;65496;50.978;16.998;2023-02-08T03:46:40;102739.69;;;21.21;25.47
76605;BME280;65496;50.978;16.998;2023-02-08T03:49:17;102743.25;;;21.21;25.40
76605;BME280;65496;50.978;16.998;2023-02-08T03:51:45;102747.94;;;21.21;25.50
76605;BME280;65496;50.978;16.998;2023-02-08T03:54:14;102750.69;;;21.21;25.46
76605;BME280;65496;50.978;16.998;2023-02-08T03:56:56;102746.00;;;21.21;25.36
76605;BME280;65496;50.978;16.998;2023-02-08T03:59:28;102744.91;;;21.22;25.44
76605;BME280;65496;50.978;16.998;2023-02-08T04:02:01;102741.59;;;21.20;25.39
76605;BME280;65496;50.978;16.998;2023-02-08T04:04:33;102741.59;;;21.20;25.61
76605;BME280;65496;50.978;16.998;2023-02-08T04:07:00;102738.84;;;21.20;25.51
76605;BME280;65496;50.978;16.998;2023-02-08T04:09:26;102744.38;;;21.20;25.41
76605;BME280;65496;50.978;16.998;2023-02-08T04:11:52;102737.75;;;21.21;25.60
76605;BME280;65496;50.978;16.998;2023-02-08T04:14:18;102746.31;;;21.20;25.47
76605;BME280;65496;50.978;16.998;2023-02-08T04:16:44;102740.00;;;21.19;25.47
76605;BME280;65496;50.978;16.998;2023-02-08T04:19:10;102737.78;;;21.16;25.53
76605;BME280;65496;50.978;16.998;2023-02-08T04:21:37;102746.31;;;21.20;25.43
76605;BME280;65496;50.978;16.998;2023-02-08T04:24:03;102741.38;;;21.17;25.49
76605;BME280;65496;50.978;16.998;2023-02-08T04:26:29;102743.84;;;21.18;25.50
76605;BME280;65496;50.978;16.998;2023-02-08T04:28:55;102746.00;;;21.21;25.52
76605;BME280;65496;50.978;16.998;2023-02-08T04:31:21;102747.13;;;21.20;25.45
76605;BME280;65496;50.978;16.998;2023-02-08T04:33:47;102742.75;;;21.19;25.27
76605;BME280;65496;50.978;16.998;2023-02-08T04:36:13;102746.31;;;21.20;25.51
76605;BME280;65496;50.978;16.998;2023-02-08T04:38:39;102738.63;;;21.17;25.67
76605;BME280;65496;50.978;16.998;2023-02-08T04:41:05;102738.06;;;21.20;25.45
76605;BME280;65496;50.978;16.998;2023-02-08T04:43:31;102737.25;;;21.19;25.35
76605;BME280;65496;50.978;16.998;2023-02-08T04:45:57;102744.69;;;21.19;25.57
76605;BME280;65496;50.978;16.998;2023-02-08T04:48:23;102745.50;;;21.19;25.50
76605;BME280;65496;50.978;16.998;2023-02-08T04:50:50;102738.84;;;21.20;25.37
76605;BME280;65496;50.978;16.998;2023-02-08T04:53:15;102740.81;;;21.20;25.38
76605;BME280;65496;50.978;16.998;2023-02-08T04:55:42;102731.19;;;21.17;25.52
76605;BME280;65496;50.978;16.998;2023-02-08T04:58:07;102731.72;;;21.19;25.44
76605;BME280;65496;50.978;16.998;2023-02-08T05:00:34;102731.72;;;21.19;25.48
76605;BME280;65496;50.978;16.998;2023-02-08T05:02:59;102733.34;;;21.20;25.53
76605;BME280;65496;50.978;16.998;2023-02-08T05:05:26;102719.34;;;21.17;25.45
76605;BME280;65496;50.978;16.998;2023-02-08T05:07:53;102727.84;;;21.20;25.54
76605;BME280;65496;50.978;16.998;2023-02-08T05:10:19;102716.81;;;21.20;25.50
76605;BME280;65496;50.978;16.998;2023-02-08T05:12:45;102713.53;;;21.18;25.35
76605;BME280;65496;50.978;16.998;2023-02-08T05:15:11;102714.06;;;21.20;25.56
76605;BME280;65496;50.978;16.998;2023-02-08T05:17:37;102714.06;;;21.20;25.45
76605;BME280;65496;50.978;16.998;2023-02-08T05:20:05;102710.19;;;21.21;25.37
76605;BME280;65496;50.978;16.998;2023-02-08T05:22:32;102714.06;;;21.20;25.44
76605;BME280;65496;50.978;16.998;2023-02-08T05:24:58;102722.03;;;21.22;25.50
76605;BME280;65496;50.978;16.998;2023-02-08T05:27:24;102710.78;;;21.18;25.42
76605;BME280;65496;50.978;16.998;2023-02-08T05:29:50;102714.59;;;21.22;25.46
76605;BME280;65496;50.978;16.998;2023-02-08T05:32:16;102728.38;;;21.22;25.27
76605;BME280;65496;50.978;16.998;2023-02-08T05:34:42;102728.38;;;21.22;25.45
76605;BME280;65496;50.978;16.998;2023-02-08T05:37:08;102733.88;;;21.22;25.29
76605;BME280;65496;50.978;16.998;2023-02-08T05:39:35;102731.13;;;21.22;25.35
76605;BME280;65496;50.978;16.998;2023-02-08T05:42:00;102733.06;;;21.22;25.41
76605;BME280;65496;50.978;16.998;2023-02-08T05:44:27;102740.00;;;21.19;25.39
76605;BME280;65496;50.978;16.998;2023-02-08T05:46:53;102744.91;;;21.22;25.32
76605;BME280;65496;50.978;16.998;2023-02-08T05:49:19;102750.41;;;21.22;25.28
76605;BME280;65496;50.978;16.998;2023-02-08T05:51:45;102746.00;;;21.21;25.32
76605;BME280;65496;50.978;16.998;2023-02-08T05:54:11;102748.78;;;21.21;25.35
76605;BME280;65496;50.978;16.998;2023-02-08T05:56:37;102749.09;;;21.20;25.34
76605;BME280;65496;50.978;16.998;2023-02-08T05:59:03;102749.59;;;21.22;25.68
76605;BME280;65496;50.978;16.998;2023-02-08T06:01:29;102747.66;;;21.22;25.41
76605;BME280;65496;50.978;16.998;2023-02-08T06:03:55;102747.94;;;21.21;25.25
76605;BME280;65496;50.978;16.998;2023-02-08T06:06:22;102725.75;;;21.07;25.34
76605;BME280;65496;50.978;16.998;2023-02-08T06:08:49;102747.94;;;21.21;25.35
76605;BME280;65496;50.978;16.998;2023-02-08T06:11:14;102749.88;;;21.20;25.27
76605;BME280;65496;50.978;16.998;2023-02-08T06:13:41;102750.69;;;21.21;25.28
76605;BME280;65496;50.978;16.998;2023-02-08T06:16:07;102756.53;;;21.19;25.37
76605;BME280;65496;50.978;16.998;2023-02-08T06:18:33;102752.13;;;21.18;25.30
76605;BME280;65496;50.978;16.998;2023-02-08T06:20:59;102750.19;;;21.19;25.36
76605;BME280;65496;50.978;16.998;2023-02-08T06:23:25;102756.53;;;21.19;25.28
76605;BME280;65496;50.978;16.998;2023-02-08T06:25:51;102752.94;;;21.19;25.37
76605;BME280;65496;50.978;16.998;2023-02-08T06:28:17;102753.75;;;21.19;25.35
76605;BME280;65496;50.978;16.998;2023-02-08T06:30:44;102743.84;;;21.18;25.45
76605;BME280;65496;50.978;16.998;2023-02-08T06:33:10;102748.53;;;21.18;25.30
76605;BME280;65496;50.978;16.998;2023-02-08T06:35:36;102754.88;;;21.18;25.39
76605;BME280;65496;50.978;16.998;2023-02-08T06:38:03;102755.69;;;21.19;25.46
76605;BME280;65496;50.978;16.998;2023-02-08T06:40:29;102752.13;;;21.18;25.44
76605;BME280;65496;50.978;16.998;2023-02-08T06:42:55;102756.81;;;21.18;25.24
76605;BME280;65496;50.978;16.998;2023-02-08T06:45:21;102766.72;;;21.19;25.38
76605;BME280;65496;50.978;16.998;2023-02-08T06:47:47;102760.38;;;21.18;25.27
76605;BME280;65496;50.978;16.998;2023-02-08T06:50:13;102756.06;;;21.12;25.40
76605;BME280;65496;50.978;16.998;2023-02-08T06:52:40;102766.72;;;21.19;25.28
76605;BME280;65496;50.978;16.998;2023-02-08T06:55:06;102773.06;;;21.19;25.31
76605;BME280;65496;50.978;16.998;2023-02-08T06:57:32;102782.94;;;21.20;25.36
76605;BME280;65496;50.978;16.998;2023-02-08T06:59:58;102773.06;;;21.19;25.26
76605;BME280;65496;50.978;16.998;2023-02-08T07:02:24;102772.22;;;21.19;25.19
76605;BME280;65496;50.978;16.998;2023-02-08T07:04:50;102783.47;;;21.22;25.27
76605;BME280;65496;50.978;16.998;2023-02-08T07:07:16;102792.03;;;21.21;25.19
76605;BME280;65496;50.978;16.998;2023-02-08T07:09:43;102782.66;;;21.22;25.38
76605;BME280;65496;50.978;16.998;2023-02-08T07:12:10;102793.91;;;21.25;25.43
76605;BME280;65496;50.978;16.998;2023-02-08T07:14:39;102793.91;;;21.25;25.35
76605;BME280;65496;50.978;16.998;2023-02-08T07:17:05;102807.41;;;21.27;25.26
76605;BME280;65496;50.978;16.998;2023-02-08T07:19:32;102816.19;;;21.29;25.11
76605;BME280;65496;50.978;16.998;2023-02-08T07:21:58;102808.75;;;21.29;25.20
76605;BME280;65496;50.978;16.998;2023-02-08T07:24:34;102799.97;;;21.27;24.99
76605;BME280;65496;50.978;16.998;2023-02-08T07:27:00;102806.00;;;21.29;25.14
76605;BME280;65496;50.978;16.998;2023-02-08T07:29:29;102814.81;;;21.31;25.21
76605;BME280;65496;50.978;16.998;2023-02-08T07:31:56;102817.84;;;21.30;25.23
76605;BME280;65496;50.978;16.998;2023-02-08T07:34:22;102815.59;;;21.32;25.18
76605;BME280;65496;50.978;16.998;2023-02-08T07:36:48;102820.84;;;21.33;25.08
76605;BME280;65496;50.978;16.998;2023-02-08T07:39:14;102822.78;;;21.33;25.24
76605;BME280;65496;50.978;16.998;2023-02-08T07:41:41;102823.31;;;21.35;25.10
76605;BME280;65496;50.978;16.998;2023-02-08T07:44:07;102821.34;;;21.35;25.21
76605;BME280;65496;50.978;16.998;2023-02-08T07:46:33;102831.28;;;21.36;25.27
76605;BME280;65496;50.978;16.998;2023-02-08T07:48:58;102828.50;;;21.36;25.19
76605;BME280;65496;50.978;16.998;2023-02-08T07:51:25;102834.03;;;21.36;25.08
76605;BME280;65496;50.978;16.998;2023-02-08T07:53:50;102833.44;;;21.39;25.14
76605;BME280;65496;50.978;16.998;2023-02-08T07:56:17;102833.44;;;21.39;25.48
76605;BME280;65496;50.978;16.998;2023-02-08T07:58:43;102838.66;;;21.41;25.08
76605;BME280;65496;50.978;16.998;2023-02-08T08:01:09;102835.91;;;21.41;25.20
76605;BME280;65496;50.978;16.998;2023-02-08T08:03:35;102845.25;;;21.45;24.94
76605;BME280;65496;50.978;16.998;2023-02-08T08:06:01;102843.00;;;21.47;25.24
76605;BME280;65496;50.978;16.998;2023-02-08T08:08:27;102842.72;;;21.49;25.22
76605;BME280;65496;50.978;16.998;2023-02-08T08:10:53;102845.47;;;21.49;25.06
76605;BME280;65496;50.978;16.998;2023-02-08T08:13:22;102845.47;;;21.49;25.20
76605;BME280;65496;50.978;16.998;2023-02-08T08:15:48;102846.31;;;21.49;25.13
76605;BME280;65496;50.978;16.998;2023-02-08T08:18:14;102848.47;;;21.52;25.22
76605;BME280;65496;50.978;16.998;2023-02-08T08:20:41;102846.81;;;21.51;25.18
76605;BME280;65496;50.978;16.998;2023-02-08T08:23:07;102850.94;;;21.54;25.01
76605;BME280;65496;50.978;16.998;2023-02-08T08:25:33;102842.13;;;21.52;25.02
76605;BME280;65496;50.978;16.998;2023-02-08T08:28:00;102843.25;;;21.51;25.05
76605;BME280;65496;50.978;16.998;2023-02-08T08:30:27;102845.94;;;21.56;25.11
76605;BME280;65496;50.978;16.998;2023-02-08T08:32:53;102845.66;;;21.57;25.13
76605;BME280;65496;50.978;16.998;2023-02-08T08:35:19;102852.84;;;21.58;24.94
76605;BME280;65496;50.978;16.998;2023-02-08T08:37:45;102847.31;;;21.58;25.09
76605;BME280;65496;50.978;16.998;2023-02-08T08:40:11;102843.13;;;21.61;24.90
76605;BME280;65496;50.978;16.998;2023-02-08T08:42:37;102843.13;;;21.61;24.98
76605;BME280;65496;50.978;16.998;2023-02-08T08:45:07;102837.63;;;21.61;24.94
76605;BME280;65496;50.978;16.998;2023-02-08T08:47:33;102832.63;;;21.63;25.17
76605;BME280;65496;50.978;16.998;2023-02-08T08:50:00;102834.88;;;21.61;24.96
76605;BME280;65496;50.978;16.998;2023-02-08T08:52:25;102835.94;;;21.65;24.91
76605;BME280;65496;50.978;16.998;2023-02-08T08:54:52;102832.06;;;21.66;25.07
76605;BME280;65496;50.978;16.998;2023-02-08T08:57:17;102841.16;;;21.66;25.00
76605;BME280;65496;50.978;16.998;2023-02-08T08:59:44;102838.09;;;21.68;25.05
76605;BME280;65496;50.978;16.998;2023-02-08T09:02:13;102833.41;;;21.68;24.97
76605;BME280;65496;50.978;16.998;2023-02-08T09:04:40;102843.59;;;21.68;25.14
76605;BME280;65496;50.978;16.998;2023-02-08T09:07:07;102838.63;;;21.70;25.05
76605;BME280;65496;50.978;16.998;2023-02-08T09:09:34;102830.38;;;21.70;24.97
76605;BME280;65496;50.978;16.998;2023-02-08T09:12:01;102837.22;;;21.72;24.94
76605;BME280;65496;50.978;16.998;2023-02-08T09:14:28;102834.16;;;21.74;25.15
76605;BME280;65496;50.978;16.998;2023-02-08T09:16:54;102831.09;;;21.75;24.91
76605;BME280;65496;50.978;16.998;2023-02-08T09:19:20;102827.00;;;21.73;24.95
76605;BME280;65496;50.978;16.998;2023-02-08T09:21:46;102833.59;;;21.77;25.04
76605;BME280;65496;50.978;16.998;2023-02-08T09:24:12;102835.19;;;21.78;24.93
76605;BME280;65496;50.978;16.998;2023-02-08T09:26:38;102819.84;;;21.72;24.94
76605;BME280;65496;50.978;16.998;2023-02-08T09:29:05;102846.78;;;21.80;25.00
76605;BME280;65496;50.978;16.998;2023-02-08T09:31:34;102846.50;;;21.81;25.15
76605;BME280;65496;50.978;16.998;2023-02-08T09:34:03;102844.53;;;21.82;25.01
76605;BME280;65496;50.978;16.998;2023-02-08T09:36:35;102847.28;;;21.82;24.91
76605;BME280;65496;50.978;16.998;2023-02-08T09:39:28;102832.16;;;21.79;24.99
76605;BME280;65496;50.978;16.998;2023-02-08T09:42:14;102844.25;;;21.83;25.07
76605;BME280;65496;50.978;16.998;2023-02-08T09:47:48;102817.13;;;21.67;25.13
76605;BME280;65496;50.978;16.998;2023-02-08T09:53:32;102844.25;;;21.83;25.13
76605;BME280;65496;50.978;16.998;2023-02-08T09:56:00;102843.97;;;21.85;24.89
76605;BME280;65496;50.978;16.998;2023-02-08T09:58:43;102836.50;;;21.85;24.90
76605;BME280;65496;50.978;16.998;2023-02-08T10:01:24;102836.50;;;21.85;24.94
76605;BME280;65496;50.978;16.998;2023-02-08T10:04:11;102823.38;;;21.77;24.84
76605;BME280;65496;50.978;16.998;2023-02-08T10:06:40;102831.78;;;21.86;25.03
76605;BME280;65496;50.978;16.998;2023-02-08T10:09:11;102826.88;;;21.83;24.90
76605;BME280;65496;50.978;16.998;2023-02-08T10:14:48;102835.38;;;21.86;25.14
76605;BME280;65496;50.978;16.998;2023-02-08T10:29:25;102820.19;;;21.89;24.93
76605;BME280;65496;50.978;16.998;2023-02-08T10:32:24;102814.69;;;21.89;25.06
76605;BME280;65496;50.978;16.998;2023-02-08T10:37:47;102826.25;;;21.91;25.05
76605;BME280;65496;50.978;16.998;2023-02-08T10:40:35;102817.97;;;21.91;25.05
76605;BME280;65496;50.978;16.998;2023-02-08T10:48:14;102821.28;;;21.93;25.03
76605;BME280;65496;50.978;16.998;2023-02-08T10:50:43;102814.63;;;21.94;24.91
76605;BME280;65496;50.978;16.998;2023-02-08T10:53:13;102811.56;;;21.96;24.90
76605;BME280;65496;50.978;16.998;2023-02-08T10:55:43;102806.88;;;21.96;24.91
76605;BME280;65496;50.978;16.998;2023-02-08T10:58:20;102815.16;;;21.96;24.84
76605;BME280;65496;50.978;16.998;2023-02-08T11:00:48;102823.44;;;21.96;24.99
76605;BME280;65496;50.978;16.998;2023-02-08T11:03:24;102817.91;;;21.96;24.95
76605;BME280;65496;50.978;16.998;2023-02-08T11:05:52;102812.09;;;21.98;24.81
76605;BME280;65496;50.978;16.998;2023-02-08T11:08:20;102811.28;;;21.97;24.86
76605;BME280;65496;50.978;16.998;2023-02-08T11:11:03;102798.28;;;21.98;24.98
76605;BME280;65496;50.978;16.998;2023-02-08T11:13:35;102791.38;;;22.00;24.90
76605;BME280;65496;50.978;16.998;2023-02-08T11:16:25;102795.75;;;22.01;24.80
76605;BME280;65496;50.978;16.998;2023-02-08T11:18:55;102790.78;;;22.03;24.96
76605;BME280;65496;50.978;16.998;2023-02-08T11:21:30;102780.25;;;22.05;24.89
76605;BME280;65496;50.978;16.998;2023-02-08T11:24:00;102791.53;;;22.09;25.01
76605;BME280;65496;50.978;16.998;2023-02-08T11:26:34;102778.53;;;22.09;24.75
76605;BME280;65496;50.978;16.998;2023-02-08T11:29:04;102776.59;;;22.10;24.85
76605;BME280;65496;50.978;16.998;2023-02-08T11:31:36;102780.72;;;22.12;24.83
76605;BME280;65496;50.978;16.998;2023-02-08T11:34:07;102768.25;;;22.15;24.67
76605;BME280;65496;50.978;16.998;2023-02-08T11:36:43;102764.91;;;22.18;24.69
76605;BME280;65496;50.978;16.998;2023-02-08T11:39:17;102758.28;;;22.19;24.73
76605;BME280;65496;50.978;16.998;2023-02-08T11:41:48;102756.63;;;22.18;24.69
76605;BME280;65496;50.978;16.998;2023-02-08T11:44:42;102753.78;;;22.23;24.69
76605;BME280;65496;50.978;16.998;2023-02-08T11:47:14;102752.16;;;22.22;24.98
76605;BME280;65496;50.978;16.998;2023-02-08T11:49:43;102744.41;;;22.24;24.71
76605;BME280;65496;50.978;16.998;2023-02-08T11:52:22;102761.75;;;22.24;24.69
76605;BME280;65496;50.978;16.998;2023-02-08T11:54:50;102757.88;;;22.25;24.78
76605;BME280;65496;50.978;16.998;2023-02-08T11:57:20;102755.13;;;22.25;24.49
76605;BME280;65496;50.978;16.998;2023-02-08T11:59:49;102750.72;;;22.24;24.78
76605;BME280;65496;50.978;16.998;2023-02-08T12:02:36;102754.00;;;22.26;24.73
76605;BME280;65496;50.978;16.998;2023-02-08T12:05:09;102752.06;;;22.27;24.81
76605;BME280;65496;50.978;16.998;2023-02-08T12:13:15;102749.94;;;22.24;24.46
76605;BME280;65496;50.978;16.998;2023-02-08T12:18:43;102759.31;;;22.23;24.60
76605;BME280;65496;50.978;16.998;2023-02-08T12:21:24;102763.19;;;22.22;24.55
76605;BME280;65496;50.978;16.998;2023-02-08T12:23:52;102759.09;;;22.19;24.68
76605;BME280;65496;50.978;16.998;2023-02-08T12:29:49;102750.81;;;22.19;24.73
76605;BME280;65496;50.978;16.998;2023-02-08T12:38:18;102733.72;;;22.17;24.66
76605;BME280;65496;50.978;16.998;2023-02-08T12:41:29;102725.75;;;22.16;24.87
76605;BME280;65496;50.978;16.998;2023-02-08T12:46:49;102727.09;;;22.18;24.40
76605;BME280;65496;50.978;16.998;2023-02-08T12:54:57;102727.63;;;22.20;24.67
76605;BME280;65496;50.978;16.998;2023-02-08T12:57:26;102723.22;;;22.19;24.50
76605;BME280;65496;50.978;16.998;2023-02-08T13:00:01;102725.16;;;22.19;24.64
76605;BME280;65496;50.978;16.998;2023-02-08T13:02:43;102722.69;;;22.17;24.58
76605;BME280;65496;50.978;16.998;2023-02-08T13:05:20;102713.59;;;22.17;24.73
76605;BME280;65496;50.978;16.998;2023-02-08T13:07:48;102718.31;;;22.16;24.53
76605;BME280;65496;50.978;16.998;2023-02-08T13:10:28;102716.66;;;22.15;24.70
76605;BME280;65496;50.978;16.998;2023-02-08T13:13:03;102711.13;;;22.15;24.56
76605;BME280;65496;50.978;16.998;2023-02-08T13:15:41;102710.31;;;22.15;24.68
76605;BME280;65496;50.978;16.998;2023-02-08T13:18:14;102708.66;;;22.14;24.67
76605;BME280;65496;50.978;16.998;2023-02-08T13:20:52;102715.00;;;22.14;24.61
76605;BME280;65496;50.978;16.998;2023-02-08T13:23:42;102709.78;;;22.13;24.77
76605;BME280;65496;50.978;16.998;2023-02-08T13:26:32;102712.53;;;22.13;24.52
76605;BME280;65496;50.978;16.998;2023-02-08T13:29:00;102695.97;;;22.13;24.67
76605;BME280;65496;50.978;16.998;2023-02-08T13:31:30;102701.22;;;22.14;24.64
76605;BME280;65496;50.978;16.998;2023-02-08T13:34:10;102701.22;;;22.14;24.74
76605;BME280;65496;50.978;16.998;2023-02-08T13:36:40;102705.09;;;22.13;24.71
76605;BME280;65496;50.978;16.998;2023-02-08T13:39:32;102703.16;;;22.14;24.68
76605;BME280;65496;50.978;16.998;2023-02-08T13:42:00;102700.38;;;22.14;24.75
76605;BME280;65496;50.978;16.998;2023-02-08T13:44:34;102695.97;;;22.13;24.73
76605;BME280;65496;50.978;16.998;2023-02-08T13:47:01;102693.22;;;22.13;24.59
76605;BME280;65496;50.978;16.998;2023-02-08T13:57:56;102688.31;;;22.10;24.69
76605;BME280;65496;50.978;16.998;2023-02-08T14:00:27;102691.91;;;22.10;24.69
76605;BME280;65496;50.978;16.998;2023-02-08T14:08:05;102695.75;;;22.09;24.78
76605;BME280;65496;50.978;16.998;2023-02-08T14:10:39;102690.56;;;22.08;24.69
76605;BME280;65496;50.978;16.998;2023-02-08T14:13:20;102681.75;;;22.06;24.76
76605;BME280;65496;50.978;16.998;2023-02-08T14:16:22;102691.38;;;22.08;24.73
76605;BME280;65496;50.978;16.998;2023-02-08T14:18:56;102680.66;;;22.07;24.70
76605;BME280;65496;50.978;16.998;2023-02-08T14:24:18;102684.50;;;22.06;24.88
76605;BME280;65496;50.978;16.998;2023-02-08T14:26:46;102680.94;;;22.05;24.62
76605;BME280;65496;50.978;16.998;2023-02-08T14:29:22;102684.84;;;22.04;25.08
76605;BME280;65496;50.978;16.998;2023-02-08T14:31:49;102672.16;;;22.03;25.01
76605;BME280;65496;50.978;16.998;2023-02-08T14:34:30;102677.66;;;22.03;24.72
76605;BME280;65496;50.978;16.998;2023-02-08T14:37:04;102668.84;;;22.01;24.87
76605;BME280;65496;50.978;16.998;2023-02-08T14:39:33;102670.81;;;22.01;24.80